»·PEaware :: N727JR KWJF-KLAS

N727JR :: KWJF-KLAS

FLIGHT INFORMATION

Flight Status: Arrived
Operator: Privately registered:
United States
More flights under this callsign
Pilot: Salim S. (29683)
Aircraft: SOCATA TBM-900
(TBM9)
More flights by this aircraft type
Origin: KWJF Gen Fox
United States
Destination: KLAS McCarran Intl
United States
More flights between these airports :: More routes between these airports
Route: +DCT PMD V12 HEC DAG CRESO4
File this flight plan on PilotEdge
Remarks:
Altitude:
(Current/Filed)
31,000ft
Speed:
(Current/Filed)
230kts
Departed: 22-May-20 02:56 PM
Arrived: 22-May-20 03:50 PM
Distance/Time
Traveled:
170nm/0:54
Distance/Time
To Go:
Arrived

Flight Plot

Page will automatically refresh every two minutes.


Map Options




Map Legend


Flown Route
Filed Route
Departure Airport
Arrival Airport
Navaid (VOR, NDB)
Fix

Horizontal Profiles

Position Reports

Time Latitude Longitude Heading Altitude Ground
Speed
22-May-20 14:41 34.739602 -118.213555 250 2339ft 0kts
22-May-20 14:42 34.739602 -118.213555 250 2339ft 0kts
22-May-20 14:43 34.739602 -118.213555 250 2339ft 0kts
22-May-20 14:44 34.739602 -118.213555 250 2339ft 0kts
22-May-20 14:45 34.739602 -118.213555 250 2339ft 0kts
22-May-20 14:46 34.739602 -118.213555 250 2339ft 0kts
22-May-20 14:47 34.739602 -118.213555 250 2339ft 0kts
22-May-20 14:48 34.739602 -118.213555 250 2339ft 0kts
22-May-20 14:49 34.739546 -118.213826 274 2339ft 7kts
22-May-20 14:50 34.741210 -118.214714 94 2339ft 5kts
22-May-20 14:51 34.742826 -118.208351 69 2336ft 29kts
22-May-20 14:52 34.743369 -118.207089 347 2336ft 0kts
22-May-20 14:53 34.743369 -118.207089 347 2336ft 0kts
22-May-20 14:54 34.743942 -118.207866 250 2336ft 0kts
22-May-20 14:55 34.739352 -118.226709 244 3133ft 91kts
22-May-20 14:56 34.721301 -118.235949 117 4964ft 126kts
22-May-20 14:57 34.708096 -118.193917 126 6081ft 132kts
22-May-20 14:58 34.694431 -118.149222 92 6935ft 152kts
22-May-20 14:59 34.694264 -118.105163 148 8999ft 129kts
22-May-20 15:00 34.664775 -118.074917 148 10950ft 145kts
22-May-20 15:01 34.635134 -118.042694 89 12712ft 171kts
22-May-20 15:02 34.643291 -117.985725 74 13567ft 172kts
22-May-20 15:03 34.652904 -117.924174 86 14878ft 217kts
22-May-20 15:04 34.650463 -117.850769 78 16850ft 206kts
22-May-20 15:05 34.667535 -117.779971 70 18525ft 224kts
22-May-20 15:06 34.678284 -117.703227 80 20123ft 241kts
22-May-20 15:07 34.687217 -117.621960 80 22112ft 226kts
22-May-20 15:08 34.695585 -117.536519 84 22853ft 262kts
22-May-20 15:09 34.700270 -117.447585 88 24049ft 266kts
22-May-20 15:10 34.709180 -117.358046 79 24925ft 278kts
22-May-20 15:11 34.723640 -117.261474 75 25002ft 303kts
22-May-20 15:12 34.740985 -117.159655 83 24963ft 310kts
22-May-20 15:13 34.749525 -117.055164 79 24836ft 318kts
22-May-20 15:14 34.766925 -116.949768 75 24820ft 321kts
22-May-20 15:15 34.794110 -116.844312 59 24965ft 328kts
22-May-20 15:16 34.845369 -116.754625 38 25406ft 321kts
22-May-20 15:17 34.915656 -116.685121 44 25152ft 341kts
22-May-20 15:18 34.963726 -116.581910 62 24773ft 352kts
22-May-20 15:19 35.011067 -116.479212 53 24764ft 345kts
22-May-20 15:20 35.056103 -116.375925 68 24758ft 340kts
22-May-20 15:21 35.100875 -116.279280 53 23910ft 318kts
22-May-20 15:22 35.144948 -116.188712 56 22787ft 304kts
22-May-20 15:23 35.186998 -116.103087 57 21540ft 285kts
22-May-20 15:24 35.226980 -116.021034 57 20141ft 278kts
22-May-20 15:25 35.266553 -115.939687 58 18505ft 275kts
22-May-20 15:26 35.305249 -115.859962 59 16848ft 272kts
22-May-20 15:28 35.341944 -115.780279 69 15283ft 264kts
22-May-20 15:29 35.372287 -115.700405 46 13719ft 260kts
22-May-20 15:30 35.425834 -115.642426 45 12168ft 255kts
22-May-20 15:31 35.476696 -115.579364 44 10574ft 264kts
22-May-20 15:32 35.525323 -115.512529 63 10027ft 259kts
22-May-20 15:33 35.571513 -115.444964 41 10024ft 259kts
22-May-20 15:34 35.622847 -115.382606 45 10016ft 259kts
22-May-20 15:35 35.674046 -115.319646 45 10068ft 258kts
22-May-20 15:36 35.729642 -115.269158 22 9574ft 236kts
22-May-20 15:37 35.788242 -115.238347 20 8608ft 225kts
22-May-20 15:38 35.845979 -115.208808 20 7552ft 220kts
22-May-20 15:39 35.901961 -115.180776 20 6396ft 215kts
22-May-20 15:40 35.959614 -115.152354 21 6030ft 249kts
22-May-20 15:41 36.020743 -115.122385 21 5979ft 195kts
22-May-20 15:42 36.072546 -115.096517 20 5696ft 208kts
22-May-20 15:43 36.120903 -115.073410 21 5232ft 169kts
22-May-20 15:44 36.171193 -115.063857 320 5192ft 195kts
22-May-20 15:44 36.186304 -115.110951 241 4724ft 167kts
22-May-20 15:46 36.151894 -115.132502 195 3075ft 84kts
22-May-20 15:47 36.130505 -115.138974 200 2833ft 77kts
22-May-20 15:47 36.113042 -115.148818 198 2505ft 81kts
22-May-20 15:48 36.093264 -115.160094 205 2107ft 53kts
22-May-20 15:49 36.084919 -115.165129 217 2143ft 24kts
22-May-20 15:50 36.084557 -115.167474 25 2153ft 28kts
22-May-20 15:51 36.090262 -115.164219 23 2128ft 11kts
22-May-20 15:52 36.091037 -115.165378 118 2130ft 0kts
22-May-20 15:53 36.091037 -115.165378 118 2130ft 0kts
22-May-20 15:54 36.091037 -115.165378 118 2130ft 0kts
22-May-20 15:55 36.091037 -115.165378 118 2130ft 0kts
22-May-20 15:56 36.091037 -115.165378 118 2130ft 0kts
22-May-20 15:57 36.091037 -115.165378 118 2130ft 0kts

Navigation Log

Ident Type
Flight plan parsing failed, navigation log unavailable